This is the latest recevied weather packets stored in our database for station/object K4DNM. If no packets are shown the sender has not sent any weather packets the latest 1 day(s).
| Time | Temp. | Humidity | Pressure | Rain* | Wind** | Luminosity | Snow |
|---|---|---|---|---|---|---|---|
| 1778015036 | 26.11° C | 46% | 1013.5 hPa | 0 mm | 2.24 m/s, 159° | 142 W/m² | - |
| 1778014736 | 26.67° C | 46% | 1013.6 hPa | 0 mm | 1.79 m/s, 187° | 322 W/m² | - |
| 1778014437 | 26.67° C | 47% | 1013.6 hPa | 0 mm | 1.79 m/s, 189° | 187 W/m² | - |
| 1778014137 | 26.67° C | 46% | 1013.6 hPa | 0 mm | 2.24 m/s, 202° | 160 W/m² | - |
| 1778013836 | 27.22° C | 46% | 1013.5 hPa | 0 mm | 1.79 m/s, 190° | 515 W/m² | - |
| 1778013596 | 26.67° C | 45% | 1013.5 hPa | 0 mm | 2.24 m/s, 191° | 557 W/m² | - |
| 1778013296 | 26.67° C | 46% | 1013.5 hPa | 0 mm | 1.79 m/s, 173° | 573 W/m² | - |
| 1778012936 | 26.67° C | 47% | 1013.5 hPa | 0 mm | 2.24 m/s, 179° | 589 W/m² | - |
| 1778012695 | 26.67° C | 46% | 1013.5 hPa | 0 mm | 2.68 m/s, 170° | 589 W/m² | - |
| 1778012484 | 26.67° C | 46% | 1013.9 hPa | 0 mm | 1.79 m/s, 165° | 522 W/m² | - |
| 1778012451 | 26.67° C | 46% | 1013.6 hPa | 0 mm | 2.24 m/s, 173° | 566 W/m² | - |
| 1778012392 | 26.67° C | 46% | 1013.7 hPa | 0 mm | 2.24 m/s, 188° | 626 W/m² | - |
| 1778012336 | 26.67° C | 46% | 1013.7 hPa | 0 mm | 2.24 m/s, 172° | 563 W/m² | - |
| 1778012276 | 26.67° C | 46% | 1013.8 hPa | 0 mm | 1.79 m/s, 171° | 521 W/m² | - |
| 1778011195 | 26.67° C | 46% | 1013.9 hPa | 0 mm | 1.79 m/s, 165° | 522 W/m² | - |
| 1778010834 | 26.67° C | 44% | 1013.9 hPa | 0 mm | 1.79 m/s, 213° | 626 W/m² | - |
| 1778010535 | 26.67° C | 44% | 1014 hPa | 0 mm | 1.79 m/s, 168° | 745 W/m² | - |
| 1778010234 | 26.67° C | 45% | 1014 hPa | 0 mm | 1.79 m/s, 174° | 827 W/m² | - |
| 1778009936 | 26.67° C | 48% | 1014.2 hPa | 0 mm | 1.79 m/s, 0° | 657 W/m² | - |
| 1778009631 | 26.67° C | 45% | 1014.3 hPa | 0 mm | 1.79 m/s, 130° | 322 W/m² | - |
| 1778009332 | 27.22° C | 44% | 1014.3 hPa | 0 mm | 1.34 m/s, 164° | 435 W/m² | - |
| 1778009031 | 27.22° C | 45% | 1014.4 hPa | 0 mm | 1.34 m/s, 146° | 590 W/m² | - |
| 1778008731 | 26.67° C | 45% | 1014.5 hPa | 0 mm | 1.34 m/s, 238° | 851 W/m² | - |
| 1778008431 | 26.67° C | 47% | 1014.6 hPa | 0 mm | 1.34 m/s, 140° | 711 W/m² | - |
| 1778008131 | 26.67° C | 45% | 1014.7 hPa | 0 mm | 1.79 m/s, 213° | 686 W/m² | - |
* Rain latest hour (hover to see other rain measurements)
** Current wind speed in m/s (hover to see current wind gust speed)